Time;durP1;ratioP1;P1;durP2;ratioP2;P2;SDS_P1;SDS_P2;PMS_P1;PMS_P2;Temp;Humidity;BMP_temperature;BMP_pressure;BME280_temperature;BME280_humidity;BME280_pressure;Samples;Min_cycle;Max_cycle;Signal;HPM_P1;HPM_P2
2022/04/18 00:02:17;;;;;;;13.30;9.27;;;;;;;;;;4990057;28;20084;-77
2022/04/18 00:04:43;;;;;;;16.92;10.63;;;;;;;;;;4987125;28;20129;-76
2022/04/18 00:07:10;;;;;;;14.25;9.77;;;;;;;;;;4988805;28;20050;-77
2022/04/18 00:09:36;;;;;;;17.58;10.07;;;;;;;;;;4956384;28;20042;-76
2022/04/18 00:12:03;;;;;;;16.08;10.38;;;;;;;;;;4987358;28;20508;-79
2022/04/18 00:14:29;;;;;;;15.88;9.35;;;;;;;;;;5015024;28;20680;-77
2022/04/18 00:16:55;;;;;;;16.02;9.85;;;;;;;;;;4957264;28;20053;-76
2022/04/18 00:19:21;;;;;;;17.60;10.25;;;;;;;;;;4991453;28;20167;-77
2022/04/18 00:21:47;;;;;;;16.90;10.35;;;;;;;;;;4973679;28;20057;-76
2022/04/18 00:24:16;;;;;;;17.75;10.73;;;;;;;;;;4992910;28;20046;-76
2022/04/18 00:26:43;;;;;;;17.02;10.98;;;;;;;;;;4973197;28;20635;-76
2022/04/18 00:29:09;;;;;;;17.17;11.02;;;;;;;;;;4996588;28;20489;-80
2022/04/18 00:31:35;;;;;;;16.05;10.15;;;;;;;;;;4987958;28;20085;-76
2022/04/18 00:34:01;;;;;;;15.90;11.27;;;;;;;;;;4990514;28;20481;-77
2022/04/18 00:36:27;;;;;;;17.98;10.32;;;;;;;;;;4972187;28;20108;-77
2022/04/18 00:38:53;;;;;;;15.60;10.85;;;;;;;;;;4971866;28;20038;-77
2022/04/18 00:41:19;;;;;;;16.88;9.73;;;;;;;;;;4989557;28;20038;-77
2022/04/18 00:43:46;;;;;;;14.65;10.70;;;;;;;;;;5013381;28;20080;-79
2022/04/18 00:46:13;;;;;;;14.48;10.30;;;;;;;;;;4973830;28;20397;-82
2022/04/18 00:48:39;;;;;;;16.85;11.10;;;;;;;;;;4993639;28;20061;-77
2022/04/18 00:51:07;;;;;;;15.88;10.50;;;;;;;;;;4973992;28;20051;-77
2022/04/18 00:53:34;;;;;;;15.25;10.38;;;;;;;;;;4973378;28;20054;-76
2022/04/18 00:56:00;;;;;;;17.70;11.02;;;;;;;;;;4976088;28;20038;-77
2022/04/18 00:58:26;;;;;;;15.75;10.13;;;;;;;;;;4984757;28;20125;-77
2022/04/18 01:00:53;;;;;;;16.48;10.48;;;;;;;;;;4989192;28;20073;-77
2022/04/18 01:03:20;;;;;;;17.00;10.50;;;;;;;;;;4971153;28;20050;-77
2022/04/18 01:05:47;;;;;;;17.42;10.73;;;;;;;;;;4972810;28;21880;-77
2022/04/18 01:08:13;;;;;;;17.98;11.68;;;;;;;;;;4971064;28;20129;-81
2022/04/18 01:10:40;;;;;;;16.33;10.73;;;;;;;;;;5003704;28;20050;-76
2022/04/18 01:13:06;;;;;;;18.92;11.27;;;;;;;;;;4986929;28;20475;-77
2022/04/18 01:15:32;;;;;;;18.95;11.52;;;;;;;;;;4955127;28;20128;-77
2022/04/18 01:17:58;;;;;;;16.90;10.57;;;;;;;;;;4966343;28;20089;-77
2022/04/18 01:20:34;;;;;;;17.83;11.63;;;;;;;;;;4987365;28;20081;-77
2022/04/18 01:23:01;;;;;;;17.75;11.32;;;;;;;;;;4991399;28;20060;-76
2022/04/18 01:30:57;;;;;;;18.73;11.07;;;;;;;;;;4987475;28;20133;-77
2022/04/18 01:33:23;;;;;;;19.83;11.25;;;;;;;;;;4987360;28;20718;-77
2022/04/18 01:35:49;;;;;;;17.40;11.48;;;;;;;;;;4993503;28;20045;-77
2022/04/18 01:38:16;;;;;;;18.95;11.90;;;;;;;;;;4986788;28;20038;-76
2022/04/18 01:40:42;;;;;;;16.58;11.23;;;;;;;;;;4988666;28;20049;-78
2022/04/18 01:43:08;;;;;;;17.63;11.20;;;;;;;;;;4987542;28;20045;-76
2022/04/18 01:45:37;;;;;;;19.20;11.50;;;;;;;;;;4987937;28;20049;-77
2022/04/18 01:48:03;;;;;;;20.20;11.18;;;;;;;;;;4994285;28;20048;-77
2022/04/18 01:50:29;;;;;;;17.83;11.63;;;;;;;;;;4989903;28;20409;-77
2022/04/18 01:52:55;;;;;;;18.48;12.05;;;;;;;;;;4987673;28;20378;-80
2022/04/18 01:55:22;;;;;;;18.67;11.15;;;;;;;;;;4995603;28;20485;-77
2022/04/18 01:57:48;;;;;;;18.77;12.13;;;;;;;;;;4986603;28;20047;-76
2022/04/18 02:00:14;;;;;;;17.58;11.55;;;;;;;;;;4956119;28;20116;-82
2022/04/18 02:02:40;;;;;;;17.85;11.73;;;;;;;;;;4970681;28;20119;-76
2022/04/18 02:05:07;;;;;;;19.05;11.38;;;;;;;;;;4969906;28;20038;-77
2022/04/18 02:07:33;;;;;;;19.05;11.48;;;;;;;;;;4989263;28;20441;-77
2022/04/18 02:09:59;;;;;;;18.02;11.85;;;;;;;;;;4987254;28;20048;-77
2022/04/18 02:12:25;;;;;;;16.73;11.32;;;;;;;;;;4982736;28;20057;-77
2022/04/18 02:14:51;;;;;;;18.27;11.63;;;;;;;;;;4983464;28;20084;-77
2022/04/18 02:17:17;;;;;;;18.25;11.57;;;;;;;;;;4986020;28;20054;-79
2022/04/18 02:19:44;;;;;;;19.92;12.35;;;;;;;;;;5005836;28;20181;-77
2022/04/18 02:22:12;;;;;;;16.80;11.88;;;;;;;;;;4970991;28;20045;-76
2022/04/18 02:24:39;;;;;;;18.48;12.20;;;;;;;;;;5004490;28;20093;-78
2022/04/18 02:27:06;;;;;;;18.38;11.25;;;;;;;;;;4973554;28;20096;-78
2022/04/18 02:29:33;;;;;;;16.77;11.30;;;;;;;;;;4990906;28;20050;-76
2022/04/18 02:34:44;;;;;;;18.75;11.77;;;;;;;;;;4970824;28;20139;-79
2022/04/18 02:37:10;;;;;;;19.92;12.05;;;;;;;;;;5003002;28;20119;-77
2022/04/18 02:39:36;;;;;;;18.25;12.27;;;;;;;;;;4969219;28;20730;-76
2022/04/18 02:42:03;;;;;;;23.42;12.02;;;;;;;;;;5007010;28;20054;-76
2022/04/18 02:44:29;;;;;;;18.27;12.20;;;;;;;;;;5009496;28;20045;-78
2022/04/18 02:46:55;;;;;;;20.15;11.25;;;;;;;;;;5003010;28;20060;-76
2022/04/18 02:49:21;;;;;;;17.33;11.82;;;;;;;;;;4992773;28;20184;-77
2022/04/18 02:51:47;;;;;;;16.83;11.77;;;;;;;;;;4994501;28;20061;-77
2022/04/18 02:54:13;;;;;;;17.50;11.65;;;;;;;;;;5013063;28;20046;-79
2022/04/18 02:56:39;;;;;;;18.88;11.98;;;;;;;;;;4962696;28;20152;-77
2022/04/18 02:59:05;;;;;;;16.80;11.43;;;;;;;;;;4991125;28;20048;-76
2022/04/18 03:01:31;;;;;;;19.77;11.70;;;;;;;;;;5011785;28;20061;-78
2022/04/18 03:03:57;;;;;;;19.30;12.38;;;;;;;;;;4982344;28;20135;-80
2022/04/18 03:06:24;;;;;;;21.63;12.18;;;;;;;;;;4979229;28;20037;-77
2022/04/18 03:08:50;;;;;;;19.13;12.48;;;;;;;;;;4993561;28;20552;-76
2022/04/18 03:11:16;;;;;;;18.33;11.95;;;;;;;;;;4978216;28;20436;-76
2022/04/18 03:13:46;;;;;;;19.05;12.60;;;;;;;;;;4961012;28;20043;-77
2022/04/18 03:16:13;;;;;;;25.65;13.15;;;;;;;;;;5008482;28;20072;-76
2022/04/18 03:18:39;;;;;;;21.13;12.95;;;;;;;;;;4977650;28;20042;-76
2022/04/18 03:21:05;;;;;;;19.63;12.15;;;;;;;;;;5014433;28;20081;-76
2022/04/18 03:23:31;;;;;;;17.42;12.05;;;;;;;;;;5011794;28;20412;-78
2022/04/18 03:25:58;;;;;;;20.50;12.52;;;;;;;;;;4993894;28;20046;-76
2022/04/18 03:28:25;;;;;;;19.38;12.25;;;;;;;;;;4999545;28;20111;-77
2022/04/18 03:30:51;;;;;;;18.67;12.52;;;;;;;;;;4991705;28;20056;-77
2022/04/18 03:33:17;;;;;;;22.88;13.02;;;;;;;;;;5015158;28;20081;-78
2022/04/18 03:41:26;;;;;;;20.73;12.43;;;;;;;;;;4993544;28;20121;-77
2022/04/18 03:43:52;;;;;;;19.85;12.68;;;;;;;;;;4980656;28;20061;-79
2022/04/18 03:46:19;;;;;;;20.15;12.60;;;;;;;;;;5015024;28;20046;-77
2022/04/18 03:48:45;;;;;;;21.05;12.13;;;;;;;;;;4984964;28;20045;-77
2022/04/18 03:51:11;;;;;;;21.40;12.82;;;;;;;;;;4994401;28;20103;-76
2022/04/18 03:53:37;;;;;;;22.13;12.43;;;;;;;;;;5009852;28;20200;-76
2022/04/18 03:56:03;;;;;;;20.50;12.65;;;;;;;;;;4978209;28;20050;-76
2022/04/18 03:58:29;;;;;;;21.58;13.40;;;;;;;;;;5009048;28;20058;-79
2022/04/18 04:00:55;;;;;;;27.02;14.07;;;;;;;;;;4972129;28;20125;-77
2022/04/18 04:03:21;;;;;;;24.38;13.35;;;;;;;;;;4990687;28;20045;-80
2022/04/18 04:05:47;;;;;;;19.55;12.38;;;;;;;;;;4996542;28;20039;-77
2022/04/18 04:08:13;;;;;;;21.35;12.68;;;;;;;;;;5005512;28;20072;-77
2022/04/18 04:10:39;;;;;;;19.10;11.75;;;;;;;;;;5006419;28;20049;-77
2022/04/18 04:13:06;;;;;;;19.92;11.98;;;;;;;;;;4992646;28;20049;-77
2022/04/18 04:15:32;;;;;;;17.45;11.70;;;;;;;;;;4958635;28;20745;-76
2022/04/18 04:17:58;;;;;;;19.10;12.07;;;;;;;;;;5010947;28;20076;-80
2022/04/18 04:20:24;;;;;;;19.75;11.52;;;;;;;;;;4989854;28;20073;-81
2022/04/18 04:22:51;;;;;;;18.38;12.05;;;;;;;;;;4994065;28;20042;-75
2022/04/18 04:25:18;;;;;;;19.42;11.90;;;;;;;;;;4990103;28;20080;-76
2022/04/18 04:27:44;;;;;;;19.90;12.88;;;;;;;;;;5005473;28;20601;-76
2022/04/18 04:30:10;;;;;;;19.27;12.45;;;;;;;;;;4989324;28;20137;-74
2022/04/18 04:32:36;;;;;;;16.90;11.02;;;;;;;;;;4991015;28;20042;-75
2022/04/18 04:35:03;;;;;;;20.15;13.23;;;;;;;;;;4976322;28;20075;-76
2022/04/18 04:37:29;;;;;;;21.13;12.75;;;;;;;;;;5006907;28;20054;-77
2022/04/18 04:39:55;;;;;;;21.52;12.85;;;;;;;;;;4972619;28;20045;-77
2022/04/18 04:42:21;;;;;;;19.98;12.40;;;;;;;;;;5006937;28;20124;-77
2022/04/18 04:44:47;;;;;;;19.25;11.93;;;;;;;;;;4974687;28;20088;-74
2022/04/18 04:47:13;;;;;;;20.33;12.00;;;;;;;;;;4975992;28;20046;-77
2022/04/18 04:49:39;;;;;;;18.80;12.27;;;;;;;;;;5001394;28;20054;-79
2022/04/18 04:52:06;;;;;;;19.67;10.77;;;;;;;;;;4988278;28;20185;-76
2022/04/18 04:54:35;;;;;;;18.73;11.18;;;;;;;;;;5004270;28;20765;-76
2022/04/18 04:57:02;;;;;;;15.80;11.88;;;;;;;;;;5006212;28;20049;-76
2022/04/18 04:59:28;;;;;;;21.90;11.90;;;;;;;;;;4988770;28;20056;-80
2022/04/18 05:01:54;;;;;;;18.90;11.20;;;;;;;;;;4990332;28;20056;-76
2022/04/18 05:04:22;;;;;;;18.73;12.35;;;;;;;;;;4988491;28;20080;-76
2022/04/18 05:06:49;;;;;;;19.55;12.35;;;;;;;;;;4970276;28;21228;-79
2022/04/18 05:09:15;;;;;;;18.63;11.35;;;;;;;;;;4989879;28;20115;-76
2022/04/18 05:11:41;;;;;;;18.02;10.95;;;;;;;;;;4970838;28;20061;-76
2022/04/18 05:14:07;;;;;;;19.15;11.60;;;;;;;;;;4989304;28;20533;-76
2022/04/18 05:16:33;;;;;;;16.40;10.70;;;;;;;;;;4988426;28;20068;-75
2022/04/18 05:18:59;;;;;;;22.05;11.60;;;;;;;;;;4972504;28;20071;-77
2022/04/18 05:21:25;;;;;;;18.02;10.80;;;;;;;;;;4990708;28;20060;-76
2022/04/18 05:23:51;;;;;;;14.85;11.00;;;;;;;;;;4963707;28;20050;-80
2022/04/18 05:26:17;;;;;;;16.98;10.73;;;;;;;;;;4970716;28;20488;-78
2022/04/18 05:28:43;;;;;;;16.15;10.50;;;;;;;;;;4980311;28;20079;-82
2022/04/18 05:31:09;;;;;;;17.70;10.82;;;;;;;;;;4985576;28;20048;-82
2022/04/18 05:33:35;;;;;;;14.88;10.35;;;;;;;;;;4990235;28;20073;-81
2022/04/18 05:36:01;;;;;;;15.70;10.98;;;;;;;;;;4988142;28;20470;-80
2022/04/18 05:38:28;;;;;;;14.40;10.32;;;;;;;;;;4956787;28;20042;-77
2022/04/18 05:40:54;;;;;;;14.88;10.48;;;;;;;;;;4971962;28;20066;-77
2022/04/18 05:43:20;;;;;;;16.52;9.85;;;;;;;;;;4990248;28;20104;-76
2022/04/18 05:45:50;;;;;;;16.60;10.70;;;;;;;;;;4991118;28;20042;-78
2022/04/18 05:48:16;;;;;;;16.70;10.32;;;;;;;;;;4958834;28;20081;-79
2022/04/18 05:50:46;;;;;;;15.20;10.48;;;;;;;;;;4977478;28;20050;-80
2022/04/18 05:53:17;;;;;;;16.27;10.68;;;;;;;;;;4995382;28;20046;-79
2022/04/18 05:55:43;;;;;;;14.45;9.65;;;;;;;;;;4976232;28;20464;-85
2022/04/18 05:58:09;;;;;;;15.43;9.80;;;;;;;;;;4975796;28;20045;-77
2022/04/18 06:00:35;;;;;;;12.48;9.35;;;;;;;;;;5008827;28;20050;-87
2022/04/18 06:03:02;;;;;;;15.20;10.20;;;;;;;;;;4969460;28;20068;-81
2022/04/18 06:05:28;;;;;;;12.02;9.40;;;;;;;;;;4957742;28;20042;-82
2022/04/18 06:07:54;;;;;;;13.75;10.73;;;;;;;;;;4960124;28;20971;-85
2022/04/18 06:10:20;;;;;;;12.43;9.80;;;;;;;;;;4985708;28;20065;-89
2022/04/18 06:12:46;;;;;;;;;;;;;;;;;;4982568;28;20065;-83
2022/04/18 06:15:12;;;;;;;;;;;;;;;;;;4985470;28;19932;-84
2022/04/18 06:17:38;;;;;;;;;;;;;;;;;;4971846;28;19917;-79
2022/04/18 06:20:04;;;;;;;;;;;;;;;;;;4971159;28;19944;-84
2022/04/18 06:22:30;;;;;;;;;;;;;;;;;;4992891;28;20005;-78
2022/04/18 06:24:56;;;;;;;;;;;;;;;;;;4979465;28;20022;-77
2022/04/18 06:27:22;;;;;;;;;;;;;;;;;;5011167;28;20069;-81
2022/04/18 06:29:48;;;;;;;;;;;;;;;;;;5004326;28;19925;-78
2022/04/18 06:32:14;;;;;;;;;;;;;;;;;;4978081;28;19921;-81
2022/04/18 06:34:40;;;;;;;;;;;;;;;;;;4985679;28;19975;-82
2022/04/18 06:37:06;;;;;;;;;;;;;;;;;;4973067;28;20008;-80
2022/04/18 06:39:32;;;;;;;;;;;;;;;;;;4988923;28;19925;-80
2022/04/18 06:41:58;;;;;;;;;;;;;;;;;;4959989;28;20262;-81
2022/04/18 06:44:24;;;;;;;;;;;;;;;;;;4963203;28;19980;-79
2022/04/18 06:46:50;;;;;;;;;;;;;;;;;;4988288;28;19922;-78
2022/04/18 06:49:16;;;;;;;;;;;;;;;;;;4989425;28;19922;-76
2022/04/18 06:51:42;;;;;;;;;;;;;;;;;;4989928;28;19928;-80
2022/04/18 06:54:08;;;;;;;;;;;;;;;;;;4969839;28;19918;-79
2022/04/18 06:59:18;;;;;;;;;;;;;;;;;;4988728;28;19921;-83
2022/04/18 07:01:44;;;;;;;;;;;;;;;;;;4983936;28;19964;-83
2022/04/18 07:04:13;;;;;;;;;;;;;;;;;;4994273;28;19917;-81
2022/04/18 07:06:39;;;;;;;;;;;;;;;;;;4994552;28;19925;-78
2022/04/18 07:09:05;;;;;;;;;;;;;;;;;;4980644;28;19929;-78
2022/04/18 07:11:31;;;;;;;;;;;;;;;;;;4988493;28;19921;-78
2022/04/18 07:13:57;;;;;;;;;;;;;;;;;;4970363;28;20360;-77
2022/04/18 07:16:23;;;;;;;;;;;;;;;;;;4995071;28;19917;-77
2022/04/18 07:18:49;;;;;;;;;;;;;;;;;;4989542;28;19917;-78
2022/04/18 07:21:15;;;;;;;;;;;;;;;;;;4990329;28;20266;-77
2022/04/18 07:23:41;;;;;;;;;;;;;;;;;;4962621;28;19924;-78
2022/04/18 07:26:07;;;;;;;;;;;;;;;;;;4975181;28;20028;-77
2022/04/18 07:28:38;;;;;;;;;;;;;;;;;;4982657;28;19944;-77
2022/04/18 07:31:04;;;;;;;;;;;;;;;;;;4970590;28;19921;-77
2022/04/18 07:33:30;;;;;;;;;;;;;;;;;;4979242;28;20410;-78
2022/04/18 07:35:55;;;;;;;;;;;;;;;;;;4978755;28;19921;-77
2022/04/18 07:41:06;;;;;;;;;;;;;;;;;;4991120;28;19929;-76
2022/04/18 07:43:35;;;;;;;;;;;;;;;;;;4991481;28;19921;-76
2022/04/18 07:46:02;;;;;;;;;;;;;;;;;;5010175;28;19924;-76
2022/04/18 07:48:28;;;;;;;;;;;;;;;;;;4990221;28;19968;-76
2022/04/18 07:53:39;;;;;;;;;;;;;;;;;;4985715;28;19928;-78
2022/04/18 07:56:05;;;;;;;;;;;;;;;;;;4996422;28;20292;-76
2022/04/18 07:58:31;;;;;;;;;;;;;;;;;;4980900;28;19921;-77
2022/04/18 08:00:57;;;;;;;;;;;;;;;;;;4965893;28;20183;-77
2022/04/18 08:03:22;;;;;;;;;;;;;;;;;;4989598;28;20353;-77
2022/04/18 08:05:49;;;;;;;;;;;;;;;;;;4996072;28;19921;-83
2022/04/18 08:08:15;;;;;;;;;;;;;;;;;;4975955;28;20004;-80
2022/04/18 08:10:41;;;;;;;;;;;;;;;;;;4990210;28;20401;-80
2022/04/18 08:13:06;;;;;;;;;;;;;;;;;;4992566;28;20423;-81
2022/04/18 08:15:32;;;;;;;;;;;;;;;;;;4994538;28;20284;-77
2022/04/18 08:17:58;;;;;;;;;;;;;;;;;;5006216;28;19955;-79
2022/04/18 08:20:24;;;;;;;;;;;;;;;;;;4978796;28;19956;-78
2022/04/18 08:22:50;;;;;;;;;;;;;;;;;;4993702;28;20423;-78
2022/04/18 08:25:16;;;;;;;;;;;;;;;;;;4994787;28;20419;-78
2022/04/18 08:27:42;;;;;;;;;;;;;;;;;;4979100;28;20380;-77
2022/04/18 08:30:08;;;;;;;;;;;;;;;;;;4978361;28;20384;-78
2022/04/18 08:32:34;;;;;;;;;;;;;;;;;;4994189;28;20315;-79
2022/04/18 08:35:00;;;;;;;;;;;;;;;;;;4996867;28;19933;-78
2022/04/18 08:37:26;;;;;;;;;;;;;;;;;;5012536;28;19925;-78
2022/04/18 08:39:52;;;;;;;;;;;;;;;;;;5010206;28;19948;-78
2022/04/18 08:42:18;;;;;;;;;;;;;;;;;;4995029;28;19975;-77
2022/04/18 08:44:44;;;;;;;;;;;;;;;;;;4993435;28;20368;-78
2022/04/18 08:52:43;;;;;;;;;;;;;;;;;;4995609;28;19943;-77
2022/04/18 08:52:43;;;;;;;;;;;;;;;;;;4995057;28;20008;-77
2022/04/18 08:55:09;;;;;;;;;;;;;;;;;;4996235;28;19921;-77
2022/04/18 08:57:35;;;;;;;;;;;;;;;;;;4977405;28;20270;-77
2022/04/18 09:00:01;;;;;;;;;;;;;;;;;;4979359;28;19921;-77
2022/04/18 09:02:27;;;;;;;;;;;;;;;;;;4994368;28;20383;-76
2022/04/18 09:04:54;;;;;;;;;;;;;;;;;;4994169;28;19933;-77
2022/04/18 09:07:19;;;;;;;;;;;;;;;;;;5000171;28;19929;-78
2022/04/18 09:09:48;;;;;;;;;;;;;;;;;;4990166;28;20020;-77
2022/04/18 09:12:14;;;;;;;;;;;;;;;;;;4992193;28;19929;-79
2022/04/18 09:14:40;;;;;;;8.32;6.60;;;;;;;;;;4990678;28;19984;-78
2022/04/18 09:17:08;;;;;;;11.45;7.30;;;;;;;;;;4990623;28;20378;-77
2022/04/18 09:19:34;;;;;;;9.68;6.65;;;;;;;;;;5008159;28;20050;-78
2022/04/18 09:22:01;;;;;;;10.02;6.65;;;;;;;;;;4983466;28;20135;-79
2022/04/18 09:24:34;;;;;;;10.23;6.22;;;;;;;;;;4991310;28;20050;-78
2022/04/18 09:27:13;;;;;;;7.38;6.35;;;;;;;;;;4992618;28;20041;-79
2022/04/18 09:29:39;;;;;;;9.35;6.53;;;;;;;;;;5000032;28;20129;-78
2022/04/18 09:32:13;;;;;;;8.43;6.50;;;;;;;;;;4972866;28;20054;-78
2022/04/18 09:34:39;;;;;;;9.32;6.47;;;;;;;;;;5008425;28;20053;-77
2022/04/18 09:37:09;;;;;;;8.40;6.05;;;;;;;;;;5007084;28;20564;-78
2022/04/18 09:39:36;;;;;;;6.63;5.90;;;;;;;;;;4995248;28;20056;-77
2022/04/18 09:42:09;;;;;;;9.40;6.03;;;;;;;;;;5007428;28;20058;-79
2022/04/18 09:44:37;;;;;;;10.25;5.97;;;;;;;;;;4992743;28;20058;-79
2022/04/18 09:47:03;;;;;;;6.10;5.50;;;;;;;;;;4999723;28;20038;-78
2022/04/18 09:49:39;;;;;;;6.95;5.68;;;;;;;;;;5026255;28;20052;-78
2022/04/18 09:52:07;;;;;;;8.93;6.65;;;;;;;;;;4967686;28;20050;-82
2022/04/18 09:54:33;;;;;;;9.77;5.70;;;;;;;;;;5008195;28;20046;-81
2022/04/18 09:57:05;;;;;;;7.85;5.68;;;;;;;;;;4999979;28;20112;-80
2022/04/18 09:59:31;;;;;;;7.93;5.72;;;;;;;;;;5006600;28;20081;-83
2022/04/18 10:01:58;;;;;;;5.78;5.10;;;;;;;;;;4985066;28;20171;-82
2022/04/18 10:04:25;;;;;;;7.82;6.00;;;;;;;;;;4999847;28;20045;-77
2022/04/18 10:06:53;;;;;;;10.98;6.68;;;;;;;;;;5004538;28;20049;-78
2022/04/18 10:09:19;;;;;;;7.18;5.57;;;;;;;;;;5008946;28;20046;-77
2022/04/18 10:11:46;;;;;;;8.65;5.57;;;;;;;;;;4976789;28;20042;-77
2022/04/18 10:14:12;;;;;;;6.57;4.95;;;;;;;;;;5008020;28;20062;-82
2022/04/18 10:16:39;;;;;;;7.65;5.15;;;;;;;;;;5006974;28;20053;-78
2022/04/18 10:19:12;;;;;;;7.38;5.18;;;;;;;;;;5008620;28;20053;-77
2022/04/18 10:21:41;;;;;;;8.60;4.97;;;;;;;;;;5008592;28;20046;-77
2022/04/18 10:24:08;;;;;;;8.13;4.70;;;;;;;;;;4999415;28;20137;-77
2022/04/18 10:26:43;;;;;;;6.40;4.80;;;;;;;;;;4992029;28;20396;-77
2022/04/18 10:29:16;;;;;;;6.10;4.93;;;;;;;;;;4999370;28;20485;-78
2022/04/18 10:31:42;;;;;;;8.40;5.13;;;;;;;;;;4995798;28;20050;-79
2022/04/18 10:34:11;;;;;;;6.30;5.18;;;;;;;;;;4976323;28;20057;-77
2022/04/18 10:36:44;;;;;;;7.43;5.00;;;;;;;;;;5008610;28;20077;-77
2022/04/18 10:39:11;;;;;;;5.73;4.33;;;;;;;;;;5008481;28;20109;-78
2022/04/18 10:41:39;;;;;;;5.57;4.30;;;;;;;;;;4991104;28;20085;-77
2022/04/18 10:44:08;;;;;;;4.55;4.03;;;;;;;;;;5006300;28;20068;-77
2022/04/18 10:46:34;;;;;;;5.20;3.80;;;;;;;;;;4994527;28;20057;-77
2022/04/18 10:49:01;;;;;;;3.92;2.97;;;;;;;;;;5009906;28;20125;-80
2022/04/18 10:51:34;;;;;;;6.47;4.10;;;;;;;;;;4991930;28;20046;-77
2022/04/18 10:54:09;;;;;;;5.00;2.97;;;;;;;;;;4992066;28;20462;-78
2022/04/18 10:56:56;;;;;;;6.10;3.35;;;;;;;;;;5002621;28;20124;-78
2022/04/18 10:59:25;;;;;;;3.72;2.63;;;;;;;;;;4984804;28;20061;-78
2022/04/18 11:01:51;;;;;;;4.13;2.60;;;;;;;;;;4990430;28;20088;-78
2022/04/18 11:04:18;;;;;;;4.10;2.60;;;;;;;;;;5006657;28;20045;-76
2022/04/18 11:06:45;;;;;;;4.60;2.80;;;;;;;;;;4994726;28;20477;-78
2022/04/18 11:09:16;;;;;;;4.45;2.95;;;;;;;;;;4977223;28;20077;-79
2022/04/18 11:11:47;;;;;;;8.60;3.80;;;;;;;;;;5009424;28;20123;-78
2022/04/18 11:14:14;;;;;;;5.55;3.42;;;;;;;;;;4994522;28;20061;-78
2022/04/18 11:16:43;;;;;;;6.00;3.65;;;;;;;;;;5009913;28;20442;-78
2022/04/18 11:19:16;;;;;;;4.18;3.35;;;;;;;;;;4993061;28;20537;-77
2022/04/18 11:21:55;;;;;;;5.75;3.67;;;;;;;;;;5010818;28;20508;-77
2022/04/18 11:24:36;;;;;;;3.47;2.92;;;;;;;;;;5014023;28;20065;-77
2022/04/18 11:27:03;;;;;;;4.70;3.05;;;;;;;;;;4991380;28;20077;-83
2022/04/18 11:29:31;;;;;;;3.50;2.83;;;;;;;;;;5013609;28;20060;-77
2022/04/18 11:31:57;;;;;;;6.20;3.17;;;;;;;;;;4965338;28;20052;-78
2022/04/18 11:34:27;;;;;;;4.25;2.83;;;;;;;;;;4983202;28;20404;-78
2022/04/18 11:36:57;;;;;;;4.40;2.75;;;;;;;;;;5010613;28;20050;-79
2022/04/18 11:39:23;;;;;;;4.20;3.38;;;;;;;;;;4983472;28;20046;-78
2022/04/18 11:41:50;;;;;;;3.75;3.20;;;;;;;;;;4990810;28;20037;-78
2022/04/18 11:44:19;;;;;;;4.57;3.53;;;;;;;;;;4996930;28;20100;-78
2022/04/18 11:46:45;;;;;;;3.72;3.05;;;;;;;;;;4965709;28;20061;-78
2022/04/18 11:49:12;;;;;;;3.75;3.10;;;;;;;;;;4997174;28;20133;-78
2022/04/18 11:51:41;;;;;;;4.03;3.20;;;;;;;;;;4997150;28;20111;-78
2022/04/18 11:54:08;;;;;;;5.75;3.83;;;;;;;;;;4979459;28;20108;-77
2022/04/18 11:56:34;;;;;;;5.68;3.50;;;;;;;;;;4979083;28;20046;-78
2022/04/18 11:59:04;;;;;;;3.97;3.05;;;;;;;;;;4978387;28;20042;-78
2022/04/18 12:07:03;;;;;;;3.38;3.08;;;;;;;;;;4989722;28;20129;-78
2022/04/18 12:09:30;;;;;;;5.07;3.42;;;;;;;;;;4989659;28;20449;-77
2022/04/18 12:11:58;;;;;;;5.00;3.17;;;;;;;;;;4997045;28;20054;-78
2022/04/18 12:14:29;;;;;;;4.90;3.00;;;;;;;;;;4990726;28;20061;-78
2022/04/18 12:16:55;;;;;;;3.97;3.20;;;;;;;;;;4968318;28;20132;-78
2022/04/18 12:19:21;;;;;;;4.72;3.35;;;;;;;;;;4975252;28;20453;-78
2022/04/18 12:21:52;;;;;;;5.90;3.80;;;;;;;;;;4985794;28;20048;-77
2022/04/18 12:24:18;;;;;;;5.75;3.42;;;;;;;;;;4951358;28;20046;-78
2022/04/18 12:26:49;;;;;;;4.28;3.53;;;;;;;;;;4977232;28;20374;-78
2022/04/18 12:29:19;;;;;;;12.45;3.47;;;;;;;;;;4977758;28;20046;-77
2022/04/18 12:31:45;;;;;;;4.57;3.40;;;;;;;;;;4990111;28;20038;-78
2022/04/18 12:34:18;;;;;;;4.13;3.72;;;;;;;;;;4979842;28;20124;-75
2022/04/18 12:36:44;;;;;;;6.50;3.53;;;;;;;;;;4978621;28;20393;-75
2022/04/18 12:39:19;;;;;;;3.75;3.10;;;;;;;;;;4984234;28;20041;-75
2022/04/18 12:41:45;;;;;;;4.32;3.17;;;;;;;;;;5005034;28;20046;-75
2022/04/18 12:44:12;;;;;;;3.80;3.40;;;;;;;;;;5002479;28;20052;-76
2022/04/18 12:46:39;;;;;;;5.78;3.10;;;;;;;;;;4980457;28;20054;-75
2022/04/18 12:49:06;;;;;;;4.80;3.10;;;;;;;;;;4974059;28;20050;-75
2022/04/18 12:51:32;;;;;;;3.97;3.25;;;;;;;;;;4989949;28;20404;-76
2022/04/18 12:53:58;;;;;;;5.43;3.10;;;;;;;;;;5013535;28;20052;-75
2022/04/18 12:56:25;;;;;;;14.35;3.40;;;;;;;;;;4980241;28;20046;-75
2022/04/18 12:58:54;;;;;;;3.90;2.97;;;;;;;;;;4980208;28;20061;-76
2022/04/18 13:01:25;;;;;;;4.70;3.53;;;;;;;;;;4987614;28;20045;-75
2022/04/18 13:03:51;;;;;;;6.55;3.63;;;;;;;;;;4994857;28;20137;-76
2022/04/18 13:06:24;;;;;;;4.07;3.30;;;;;;;;;;4995525;28;20092;-75
2022/04/18 13:08:50;;;;;;;5.47;3.85;;;;;;;;;;5002747;28;20054;-75
2022/04/18 13:11:19;;;;;;;4.28;3.10;;;;;;;;;;4986873;28;20045;-78
2022/04/18 13:13:46;;;;;;;4.75;3.50;;;;;;;;;;4968237;28;20084;-76
2022/04/18 13:16:22;;;;;;;4.05;2.88;;;;;;;;;;4981489;28;20127;-76
2022/04/18 13:18:56;;;;;;;5.25;3.33;;;;;;;;;;4991534;28;20046;-76
2022/04/18 13:21:22;;;;;;;4.00;3.30;;;;;;;;;;4995260;28;20037;-75
2022/04/18 13:23:48;;;;;;;3.72;2.88;;;;;;;;;;4979888;28;20073;-75
2022/04/18 13:26:14;;;;;;;4.18;3.20;;;;;;;;;;4994839;28;20050;-76
2022/04/18 13:28:40;;;;;;;4.80;3.40;;;;;;;;;;4979837;28;20058;-75
2022/04/18 13:31:06;;;;;;;4.00;2.72;;;;;;;;;;4994808;28;20053;-75
2022/04/18 13:33:32;;;;;;;7.18;3.22;;;;;;;;;;4964197;28;20576;-75
2022/04/18 13:38:43;;;;;;;5.70;3.42;;;;;;;;;;4995450;28;20156;-75
2022/04/18 13:41:09;;;;;;;3.75;2.92;;;;;;;;;;4978674;28;20046;-75
2022/04/18 13:43:35;;;;;;;4.35;3.08;;;;;;;;;;4966460;28;20516;-76
2022/04/18 13:46:03;;;;;;;3.90;3.03;;;;;;;;;;4944925;28;20050;-76
2022/04/18 13:48:29;;;;;;;3.97;3.35;;;;;;;;;;4990728;28;20379;-76
2022/04/18 13:50:55;;;;;;;3.45;3.10;;;;;;;;;;4994970;28;20077;-77
2022/04/18 13:53:21;;;;;;;3.63;2.97;;;;;;;;;;4995080;28;20042;-77
2022/04/18 13:55:47;;;;;;;3.95;3.15;;;;;;;;;;4994013;28;20057;-77
2022/04/18 13:58:13;;;;;;;4.45;3.17;;;;;;;;;;4993012;28;20046;-76
2022/04/18 14:00:40;;;;;;;3.90;3.33;;;;;;;;;;4980568;28;20035;-76
2022/04/18 14:03:06;;;;;;;7.20;3.70;;;;;;;;;;4978181;28;20350;-77
2022/04/18 14:05:33;;;;;;;4.65;3.70;;;;;;;;;;4981114;28;20406;-77
2022/04/18 14:08:00;;;;;;;4.25;3.40;;;;;;;;;;4970559;28;20046;-77
2022/04/18 14:10:27;;;;;;;3.33;3.03;;;;;;;;;;4978054;28;20057;-77
2022/04/18 14:12:53;;;;;;;3.30;3.00;;;;;;;;;;4983819;28;20058;-77
2022/04/18 14:20:48;;;;;;;6.20;3.33;;;;;;;;;;4993926;28;20049;-77
2022/04/18 14:23:14;;;;;;;3.78;3.30;;;;;;;;;;4993978;28;20363;-77
2022/04/18 14:25:41;;;;;;;4.40;3.78;;;;;;;;;;5011696;28;20127;-76
2022/04/18 14:28:07;;;;;;;5.13;3.45;;;;;;;;;;4963732;28;20050;-76
2022/04/18 14:30:34;;;;;;;5.47;3.60;;;;;;;;;;5011109;28;20073;-77
2022/04/18 14:33:03;;;;;;;5.45;3.67;;;;;;;;;;4992835;28;20046;-76
2022/04/18 14:35:29;;;;;;;3.80;3.10;;;;;;;;;;4978732;28;20046;-77
2022/04/18 14:37:55;;;;;;;4.28;3.45;;;;;;;;;;4994019;28;20044;-77
2022/04/18 14:40:21;;;;;;;7.43;3.05;;;;;;;;;;4993698;28;20482;-77
2022/04/18 14:42:47;;;;;;;3.30;2.97;;;;;;;;;;4994942;28;20147;-77
2022/04/18 14:45:13;;;;;;;9.50;3.50;;;;;;;;;;4978247;28;20092;-77
2022/04/18 14:47:39;;;;;;;14.00;10.82;;;;;;;;;;4981228;28;20061;-77
2022/04/18 14:50:06;;;;;;;5.60;3.38;;;;;;;;;;4994797;28;20073;-77
2022/04/18 14:52:32;;;;;;;5.15;3.08;;;;;;;;;;4973289;28;20461;-77
2022/04/18 14:54:58;;;;;;;7.35;3.67;;;;;;;;;;4989017;28;20054;-77
2022/04/18 14:57:24;;;;;;;5.32;3.70;;;;;;;;;;4993484;28;20058;-77
2022/04/18 14:59:51;;;;;;;4.43;3.75;;;;;;;;;;4943304;28;20047;-77
2022/04/18 15:02:18;;;;;;;5.75;3.70;;;;;;;;;;4990226;28;20053;-77
2022/04/18 15:04:46;;;;;;;5.20;3.40;;;;;;;;;;4985541;28;20104;-77
2022/04/18 15:07:12;;;;;;;3.80;3.30;;;;;;;;;;4977674;28;20053;-77
2022/04/18 15:09:38;;;;;;;3.75;3.35;;;;;;;;;;4993978;28;20054;-77
2022/04/18 15:12:08;;;;;;;4.28;3.20;;;;;;;;;;4994558;28;20092;-77
2022/04/18 15:14:34;;;;;;;6.47;3.50;;;;;;;;;;4994085;28;20050;-77
2022/04/18 15:17:01;;;;;;;5.57;3.35;;;;;;;;;;4994322;28;20049;-76
2022/04/18 15:19:27;;;;;;;15.93;9.20;;;;;;;;;;4977746;28;20128;-77
2022/04/18 15:21:53;;;;;;;15.32;10.35;;;;;;;;;;4961313;28;20038;-77
2022/04/18 15:24:19;;;;;;;5.18;3.78;;;;;;;;;;4985984;28;20111;-77
2022/04/18 15:26:45;;;;;;;18.00;14.57;;;;;;;;;;4987622;28;20086;-76
2022/04/18 15:29:11;;;;;;;29.25;26.08;;;;;;;;;;4984631;28;20073;-77
2022/04/18 15:34:42;;;;;;;21.02;14.20;;;;;;;;;;4938674;28;20047;-76